createdAt,value
2018-07-02T00:00:29.735Z,21.80
2018-07-02T00:02:58.334Z,21.70
2018-07-02T00:05:38.137Z,21.60
2018-07-02T00:08:06.823Z,21.50
2018-07-02T00:10:35.538Z,21.60
2018-07-02T00:13:04.141Z,21.60
2018-07-02T00:15:32.727Z,21.70
2018-07-02T00:18:01.357Z,21.60
2018-07-02T00:20:30.179Z,21.50
2018-07-02T00:22:58.786Z,21.40
2018-07-02T00:25:27.407Z,21.40
2018-07-02T00:27:56.049Z,21.30
2018-07-02T00:30:24.640Z,21.20
2018-07-02T00:32:53.266Z,21.20
2018-07-02T00:35:21.917Z,21.20
2018-07-02T00:37:50.491Z,21.20
2018-07-02T00:40:19.106Z,21.10
2018-07-02T00:42:47.707Z,21.00
2018-07-02T00:45:16.295Z,20.90
2018-07-02T00:47:44.944Z,21.00
2018-07-02T00:50:13.798Z,21.10
2018-07-02T00:52:42.415Z,21.10
2018-07-02T00:55:11.009Z,21.10
2018-07-02T00:57:39.602Z,21.20
2018-07-02T01:00:15.235Z,21.20
2018-07-02T01:02:44.110Z,21.20
2018-07-02T01:05:13.416Z,21.30
2018-07-02T01:07:43.190Z,21.20
2018-07-02T01:10:11.821Z,21.10
2018-07-02T01:12:40.466Z,21.00
2018-07-02T01:15:09.141Z,21.00
2018-07-02T01:17:37.753Z,20.90
2018-07-02T01:20:06.361Z,20.80
2018-07-02T01:22:34.929Z,20.80
2018-07-02T01:25:03.632Z,20.80
2018-07-02T01:27:34.417Z,20.80
2018-07-02T01:30:08.085Z,20.90
2018-07-02T01:32:36.700Z,21.00
2018-07-02T01:35:05.328Z,21.00
2018-07-02T01:37:33.921Z,20.90
2018-07-02T01:40:02.518Z,21.00
2018-07-02T01:42:31.051Z,21.00
2018-07-02T01:44:59.659Z,21.10
2018-07-02T01:47:28.275Z,21.10
2018-07-02T01:49:56.829Z,21.00
2018-07-02T01:52:25.418Z,20.90
2018-07-02T01:54:54.018Z,20.70
2018-07-02T01:57:22.615Z,20.70
2018-07-02T01:59:51.261Z,20.60
2018-07-02T02:02:19.894Z,20.70
2018-07-02T02:04:48.484Z,20.70
2018-07-02T02:07:17.133Z,20.70
2018-07-02T02:09:50.766Z,20.60
2018-07-02T02:12:19.337Z,20.60
2018-07-02T02:14:47.917Z,20.60
2018-07-02T02:17:16.503Z,20.50
2018-07-02T02:19:45.179Z,20.50
2018-07-02T02:22:13.751Z,20.60
2018-07-02T02:24:42.334Z,20.70
2018-07-02T02:27:10.970Z,20.70
2018-07-02T02:29:39.578Z,20.70
2018-07-02T02:32:08.226Z,20.60
2018-07-02T02:34:36.771Z,20.60
2018-07-02T02:37:05.493Z,20.60
2018-07-02T02:39:34.138Z,20.60
2018-07-02T02:42:02.794Z,20.60
2018-07-02T02:44:31.369Z,20.50
2018-07-02T02:46:59.947Z,20.40
2018-07-02T02:49:28.780Z,20.30
2018-07-02T02:51:57.381Z,20.30
2018-07-02T02:54:26.098Z,20.30
2018-07-02T02:56:54.763Z,20.30
2018-07-02T02:59:23.517Z,20.20
2018-07-02T03:01:52.131Z,20.10
2018-07-02T03:04:20.693Z,20.00
2018-07-02T03:06:49.331Z,19.80
2018-07-02T03:09:17.978Z,19.70
2018-07-02T03:11:46.614Z,19.70
2018-07-02T03:14:15.354Z,19.80
2018-07-02T03:16:43.873Z,19.90
2018-07-02T03:19:12.762Z,19.90
2018-07-02T03:21:41.386Z,19.90
2018-07-02T03:24:10.100Z,20.00
2018-07-02T03:26:38.687Z,19.90
2018-07-02T03:29:07.371Z,19.80
2018-07-02T03:31:36.031Z,19.80
2018-07-02T03:34:04.623Z,19.70
2018-07-02T03:36:33.257Z,19.60
2018-07-02T03:39:01.868Z,19.40
2018-07-02T03:41:30.427Z,19.40
2018-07-02T03:43:58.970Z,19.50
2018-07-02T03:46:27.599Z,19.50
2018-07-02T03:48:56.296Z,19.40
2018-07-02T03:51:24.905Z,19.40
2018-07-02T03:53:53.513Z,19.30
2018-07-02T03:56:22.199Z,19.20
2018-07-02T03:58:51.094Z,19.20
2018-07-02T04:01:19.657Z,19.20
2018-07-02T04:03:48.183Z,19.20
2018-07-02T04:06:16.785Z,19.20
2018-07-02T04:08:45.420Z,19.20
2018-07-02T04:11:13.969Z,19.20
2018-07-02T04:13:42.535Z,19.10
2018-07-02T04:16:11.111Z,19.10
2018-07-02T04:18:39.739Z,19.00
2018-07-02T04:21:08.429Z,19.00
2018-07-02T04:23:37.126Z,19.00
2018-07-02T04:26:05.752Z,19.10
2018-07-02T04:28:34.428Z,19.10
2018-07-02T04:31:03.052Z,19.10
2018-07-02T04:33:31.609Z,19.10
2018-07-02T04:36:00.284Z,19.10
2018-07-02T04:38:28.895Z,19.10
2018-07-02T04:40:57.752Z,19.20
2018-07-02T04:43:26.321Z,19.20
2018-07-02T04:45:54.889Z,19.30
2018-07-02T04:48:23.430Z,19.30
2018-07-02T04:50:52.199Z,19.20
2018-07-02T04:53:20.894Z,19.10
2018-07-02T04:55:49.480Z,19.10
2018-07-02T04:58:18.069Z,19.20
2018-07-02T05:00:46.950Z,19.30
2018-07-02T05:03:15.630Z,19.40
2018-07-02T05:05:44.163Z,19.50
2018-07-02T05:08:12.702Z,19.50
2018-07-02T05:10:41.234Z,19.40
2018-07-02T05:13:09.821Z,19.40
2018-07-02T05:15:38.415Z,19.50
2018-07-02T05:18:07.172Z,19.60
2018-07-02T05:20:35.757Z,19.60
2018-07-02T05:23:04.301Z,19.50
2018-07-02T05:25:32.911Z,19.60
2018-07-02T05:28:01.518Z,19.60
2018-07-02T05:30:30.310Z,19.60
2018-07-02T05:32:58.970Z,19.70
2018-07-02T05:35:27.639Z,19.70
2018-07-02T05:37:56.212Z,19.80
2018-07-02T05:40:25.079Z,19.90
2018-07-02T05:42:53.597Z,20.00
2018-07-02T05:45:22.190Z,20.00
2018-07-02T05:47:50.827Z,20.10
2018-07-02T05:50:19.411Z,20.10
2018-07-02T05:52:48.126Z,20.00
2018-07-02T05:55:16.771Z,20.00
2018-07-02T05:57:45.354Z,20.10
2018-07-02T06:00:14.211Z,20.10
2018-07-02T06:02:42.870Z,20.10
2018-07-02T06:05:11.535Z,20.20
2018-07-02T06:07:40.103Z,20.20
2018-07-02T06:10:08.744Z,20.20
2018-07-02T06:12:37.324Z,20.20
2018-07-02T06:15:05.916Z,20.30
2018-07-02T06:17:34.498Z,20.30
2018-07-02T06:20:03.370Z,20.40
2018-07-02T06:22:31.968Z,20.30
2018-07-02T06:25:00.582Z,20.30
2018-07-02T06:27:29.159Z,20.30
2018-07-02T06:29:58.057Z,20.30
2018-07-02T06:32:26.722Z,20.40
2018-07-02T06:34:55.319Z,20.50
2018-07-02T06:37:23.914Z,20.60
2018-07-02T06:39:58.000Z,20.60
2018-07-02T06:42:26.589Z,20.60
2018-07-02T06:44:55.199Z,20.60
2018-07-02T06:47:23.741Z,20.60
2018-07-02T06:49:52.396Z,20.70
2018-07-02T06:52:21.062Z,20.70
2018-07-02T06:54:49.670Z,20.70
2018-07-02T06:57:18.298Z,20.60
2018-07-02T06:59:47.003Z,20.70
2018-07-02T07:02:15.592Z,20.70
2018-07-02T07:04:44.180Z,20.80
2018-07-02T07:07:12.947Z,20.80
2018-07-02T07:09:46.482Z,20.90
2018-07-02T07:12:15.115Z,21.00
2018-07-02T07:14:43.683Z,21.10
2018-07-02T07:17:12.259Z,21.10
2018-07-02T07:19:41.066Z,21.20
2018-07-02T07:22:09.640Z,21.30
2018-07-02T07:24:38.245Z,21.60
2018-07-02T07:27:06.837Z,22.10
2018-07-02T07:29:35.458Z,22.40
2018-07-02T07:32:04.156Z,22.70
2018-07-02T07:34:32.828Z,23.00
2018-07-02T07:37:01.411Z,23.30
2018-07-02T07:39:29.999Z,23.40
2018-07-02T07:41:58.774Z,23.60
2018-07-02T07:44:27.358Z,23.80
2018-07-02T07:46:56.213Z,24.00
2018-07-02T07:49:30.035Z,24.10
2018-07-02T07:51:58.633Z,24.20
2018-07-02T07:54:27.297Z,24.40
2018-07-02T07:56:55.948Z,24.50
2018-07-02T07:59:24.628Z,24.60
2018-07-02T08:01:53.137Z,24.70
2018-07-02T08:04:21.753Z,24.70
2018-07-02T08:06:50.391Z,24.80
2018-07-02T08:09:19.036Z,24.80
2018-07-02T08:11:47.604Z,24.90
2018-07-02T08:14:16.147Z,25.00
2018-07-02T08:16:44.827Z,25.10
2018-07-02T08:19:13.627Z,25.30
2018-07-02T08:21:42.242Z,25.30
2018-07-02T08:24:10.806Z,25.30
2018-07-02T08:26:39.314Z,25.20
2018-07-02T08:29:07.954Z,25.30
2018-07-02T08:31:36.589Z,25.30
2018-07-02T08:34:05.309Z,25.40
2018-07-02T08:36:33.833Z,25.50
2018-07-02T08:39:03.447Z,25.50
2018-07-02T08:41:31.977Z,25.60
2018-07-02T08:44:00.598Z,25.70
2018-07-02T08:46:29.170Z,25.70
2018-07-02T08:48:57.779Z,25.80
2018-07-02T08:51:26.387Z,25.90
2018-07-02T08:53:55.006Z,26.00
2018-07-02T08:56:23.729Z,26.10
2018-07-02T08:58:52.442Z,26.20
2018-07-02T09:01:21.066Z,26.30
2018-07-02T09:03:49.687Z,26.40
2018-07-02T09:06:18.314Z,26.50
2018-07-02T09:08:46.898Z,26.60
2018-07-02T09:11:15.502Z,26.70
2018-07-02T09:13:44.093Z,26.60
2018-07-02T09:16:12.707Z,26.70
2018-07-02T09:18:41.362Z,26.90
2018-07-02T09:21:10.018Z,26.80
2018-07-02T09:23:38.541Z,26.70
2018-07-02T09:26:07.189Z,26.70
2018-07-02T09:28:35.854Z,26.80
2018-07-02T09:31:09.469Z,27.00
2018-07-02T09:33:38.062Z,27.00
2018-07-02T09:36:06.692Z,27.10
2018-07-02T09:38:35.322Z,27.10
2018-07-02T09:41:04.029Z,27.20
2018-07-02T09:43:32.673Z,27.20
2018-07-02T09:46:01.307Z,27.20
2018-07-02T09:48:29.915Z,27.30
2018-07-02T09:50:58.455Z,27.40
2018-07-02T09:53:27.327Z,27.70
2018-07-02T09:55:55.725Z,27.80
2018-07-02T09:58:24.322Z,28.00
2018-07-02T10:00:52.878Z,28.00
2018-07-02T10:03:21.437Z,28.10
2018-07-02T10:05:50.070Z,28.20
2018-07-02T10:08:18.738Z,28.20
2018-07-02T10:10:52.674Z,28.20
2018-07-02T10:13:21.256Z,28.20
2018-07-02T10:15:49.818Z,28.20
2018-07-02T10:18:18.451Z,28.20
2018-07-02T10:20:47.328Z,28.30
2018-07-02T10:23:15.981Z,28.40
2018-07-02T10:25:44.599Z,28.50
2018-07-02T10:28:13.279Z,28.50
2018-07-02T10:30:41.999Z,28.50
2018-07-02T10:33:10.513Z,28.60
2018-07-02T10:35:39.090Z,28.60
2018-07-02T10:38:07.657Z,28.60
2018-07-02T10:40:36.217Z,28.70
2018-07-02T10:43:05.654Z,28.80
2018-07-02T10:45:34.249Z,28.60
2018-07-02T10:48:02.937Z,28.50
2018-07-02T10:50:31.559Z,28.50
2018-07-02T10:53:00.135Z,28.60
2018-07-02T10:55:28.788Z,28.60
2018-07-02T10:57:57.376Z,28.60
2018-07-02T11:00:26.263Z,28.90
2018-07-02T11:02:54.902Z,29.00
2018-07-02T11:05:23.601Z,29.00
2018-07-02T11:07:52.226Z,29.10
2018-07-02T11:10:21.000Z,29.20
2018-07-02T11:12:49.554Z,29.20
2018-07-02T11:15:18.523Z,29.30
2018-07-02T11:17:47.103Z,29.40
2018-07-02T11:20:15.860Z,29.60
2018-07-02T11:22:44.579Z,29.80
2018-07-02T11:25:13.110Z,30.10
2018-07-02T11:27:41.902Z,30.10
2018-07-02T11:30:10.478Z,30.00
2018-07-02T11:32:39.019Z,30.10
2018-07-02T11:35:07.634Z,30.30
2018-07-02T11:37:36.219Z,30.40
2018-07-02T11:40:04.898Z,30.50
2018-07-02T11:42:33.451Z,30.40
2018-07-02T11:45:02.006Z,30.50
2018-07-02T11:47:30.703Z,30.50
2018-07-02T11:50:00.361Z,30.70
2018-07-02T11:52:29.009Z,30.90
2018-07-02T11:54:57.566Z,31.20
2018-07-02T11:57:26.241Z,31.20
2018-07-02T11:59:55.102Z,31.30
2018-07-02T12:02:23.669Z,31.30
2018-07-02T12:04:52.303Z,31.20
2018-07-02T12:07:20.939Z,31.10
2018-07-02T12:09:49.796Z,31.00
2018-07-02T12:12:18.410Z,31.00
2018-07-02T12:14:47.014Z,31.20
2018-07-02T12:17:15.644Z,31.20
2018-07-02T12:19:44.414Z,31.20
2018-07-02T12:22:13.005Z,31.20
2018-07-02T12:24:41.596Z,31.20
2018-07-02T12:27:10.141Z,31.20
2018-07-02T12:29:38.688Z,31.20
2018-07-02T12:32:07.311Z,31.20
2018-07-02T12:34:35.861Z,31.30
2018-07-02T12:37:04.494Z,31.40
2018-07-02T12:39:33.420Z,31.50
2018-07-02T12:42:02.079Z,31.70
2018-07-02T12:44:30.652Z,31.80
2018-07-02T12:46:59.161Z,31.80
2018-07-02T12:49:33.119Z,32.00
2018-07-02T12:52:01.691Z,31.90
2018-07-02T12:54:30.388Z,31.80
2018-07-02T12:56:58.862Z,31.80
2018-07-02T12:59:27.402Z,31.50
2018-07-02T13:01:56.042Z,31.30
2018-07-02T13:04:24.530Z,31.10
2018-07-02T13:06:53.329Z,30.80
2018-07-02T13:09:22.020Z,30.60
2018-07-02T13:11:50.666Z,30.40
2018-07-02T13:14:19.296Z,30.30
2018-07-02T13:16:47.873Z,30.20
2018-07-02T13:19:16.973Z,30.10
2018-07-02T13:21:45.516Z,29.90
2018-07-02T13:24:14.103Z,29.90
2018-07-02T13:26:42.574Z,29.90
2018-07-02T13:29:11.474Z,29.90
2018-07-02T13:31:40.037Z,30.00
2018-07-02T13:34:08.714Z,29.90
2018-07-02T13:36:37.386Z,29.80
2018-07-02T13:39:07.768Z,29.80
2018-07-02T13:41:36.341Z,29.90
2018-07-02T13:44:05.056Z,29.90
2018-07-02T13:46:33.731Z,30.00
2018-07-02T13:49:02.289Z,30.10
2018-07-02T13:51:30.847Z,30.10
2018-07-02T13:53:59.444Z,30.30
2018-07-02T13:56:28.002Z,30.30
2018-07-02T13:58:56.613Z,30.10
2018-07-02T14:01:25.224Z,30.00
2018-07-02T14:03:53.761Z,29.90
2018-07-02T14:06:22.391Z,29.80
2018-07-02T14:08:51.091Z,29.70
2018-07-02T14:11:19.627Z,29.60
2018-07-02T14:13:48.146Z,29.50
2018-07-02T14:16:16.674Z,29.40
2018-07-02T14:18:45.275Z,29.30
2018-07-02T14:21:14.047Z,29.20
2018-07-02T14:23:42.615Z,29.20
2018-07-02T14:26:11.165Z,29.20
2018-07-02T14:28:39.715Z,29.10
2018-07-02T14:31:08.527Z,29.10
2018-07-02T14:33:37.083Z,29.10
2018-07-02T14:36:06.234Z,29.10
2018-07-02T14:38:35.089Z,29.00
2018-07-02T14:41:03.867Z,29.10
2018-07-02T14:43:32.974Z,29.00
2018-07-02T14:46:01.664Z,29.00
2018-07-02T14:48:30.321Z,29.00
2018-07-02T14:50:58.952Z,28.90
2018-07-02T14:53:27.583Z,28.90
2018-07-02T14:55:56.165Z,28.80
2018-07-02T14:58:24.910Z,28.70
2018-07-02T15:00:58.711Z,28.70
2018-07-02T15:03:27.463Z,28.70
2018-07-02T15:05:56.117Z,28.70
2018-07-02T15:08:25.018Z,28.70
2018-07-02T15:10:53.640Z,28.60
2018-07-02T15:13:22.220Z,28.50
2018-07-02T15:15:50.851Z,28.30
2018-07-02T15:18:19.513Z,28.10
2018-07-02T15:20:48.039Z,28.00
2018-07-02T15:23:18.405Z,27.90
2018-07-02T15:25:49.671Z,27.90
2018-07-02T15:28:18.345Z,28.00
2018-07-02T15:30:47.165Z,28.00
2018-07-02T15:33:15.860Z,28.10
2018-07-02T15:35:44.628Z,28.10
2018-07-02T15:38:13.310Z,28.00
2018-07-02T15:40:41.940Z,27.90
2018-07-02T15:43:10.497Z,27.80
2018-07-02T15:45:39.099Z,27.60
2018-07-02T15:48:07.721Z,27.40
2018-07-02T15:50:36.322Z,27.40
2018-07-02T15:53:04.968Z,27.50
2018-07-02T15:55:33.588Z,27.50
2018-07-02T15:58:02.212Z,27.50
2018-07-02T16:00:30.855Z,27.40
2018-07-02T16:02:59.447Z,27.30
2018-07-02T16:05:27.999Z,27.30
2018-07-02T16:07:56.570Z,27.40
2018-07-02T16:10:25.223Z,27.40
2018-07-02T16:12:53.771Z,27.40
2018-07-02T16:15:22.351Z,27.40
2018-07-02T16:17:50.914Z,27.20
2018-07-02T16:20:19.435Z,27.20
2018-07-02T16:22:48.029Z,27.20
2018-07-02T16:25:16.565Z,27.20
2018-07-02T16:27:45.121Z,27.20
2018-07-02T16:30:18.775Z,27.20
2018-07-02T16:32:47.353Z,27.20
2018-07-02T16:35:15.850Z,27.30
2018-07-02T16:37:44.466Z,27.20
2018-07-02T16:40:13.172Z,27.00
2018-07-02T16:42:41.778Z,26.90
2018-07-02T16:45:10.352Z,26.90
2018-07-02T16:47:38.955Z,26.80
2018-07-02T16:50:07.869Z,26.70
2018-07-02T16:52:36.469Z,26.70
2018-07-02T16:55:05.303Z,26.70
2018-07-02T16:57:33.963Z,26.80
2018-07-02T17:00:02.547Z,26.80
2018-07-02T17:02:31.123Z,26.80
2018-07-02T17:04:59.769Z,26.80
2018-07-02T17:07:28.413Z,26.80
2018-07-02T17:09:57.133Z,26.80
2018-07-02T17:12:25.771Z,26.90
2018-07-02T17:14:54.385Z,26.90
2018-07-02T17:17:22.986Z,26.90
2018-07-02T17:19:51.911Z,26.80
2018-07-02T17:22:20.574Z,26.60
2018-07-02T17:24:49.155Z,26.50
2018-07-02T17:27:17.766Z,26.50
2018-07-02T17:29:46.596Z,26.50
2018-07-02T17:32:15.194Z,26.60
2018-07-02T17:34:43.776Z,26.60
2018-07-02T17:37:12.379Z,26.70
2018-07-02T17:39:41.126Z,26.80
2018-07-02T17:42:09.657Z,26.80
2018-07-02T17:44:38.221Z,26.80
2018-07-02T17:47:06.792Z,26.80
2018-07-02T17:49:35.365Z,26.70
2018-07-02T17:52:03.949Z,26.80
2018-07-02T17:54:32.570Z,26.80
2018-07-02T17:57:01.147Z,26.80
2018-07-02T17:59:29.765Z,26.80
2018-07-02T18:01:58.365Z,26.90
2018-07-02T18:04:27.102Z,27.00
2018-07-02T18:06:55.733Z,27.00
2018-07-02T18:09:29.659Z,26.90
2018-07-02T18:11:58.247Z,26.80
2018-07-02T18:14:26.882Z,26.70
2018-07-02T18:16:55.414Z,26.60
2018-07-02T18:19:24.337Z,26.50
2018-07-02T18:21:52.880Z,26.50
2018-07-02T18:24:21.527Z,26.50
2018-07-02T18:26:50.226Z,26.40
2018-07-02T18:29:18.818Z,26.40
2018-07-02T18:31:47.418Z,26.40
2018-07-02T18:34:16.066Z,26.40
2018-07-02T18:36:44.685Z,26.30
2018-07-02T18:39:13.426Z,26.30
2018-07-02T18:41:42.066Z,26.20
2018-07-02T18:44:10.703Z,26.30
2018-07-02T18:46:39.347Z,26.20
2018-07-02T18:49:08.265Z,26.10
2018-07-02T18:51:36.818Z,26.00
2018-07-02T18:54:05.454Z,26.00
2018-07-02T18:56:34.035Z,25.90
2018-07-02T18:59:02.622Z,25.80
2018-07-02T19:01:31.394Z,25.80
2018-07-02T19:04:00.014Z,25.60
2018-07-02T19:06:28.882Z,25.60
2018-07-02T19:08:57.469Z,25.50
2018-07-02T19:11:31.347Z,25.50
2018-07-02T19:14:00.046Z,25.40
2018-07-02T19:16:28.754Z,25.50
2018-07-02T19:18:57.360Z,25.50
2018-07-02T19:21:25.977Z,25.50
2018-07-02T19:23:54.714Z,25.50
2018-07-02T19:26:23.415Z,25.50
2018-07-02T19:28:52.022Z,25.60
2018-07-02T19:31:20.796Z,25.50
2018-07-02T19:33:49.395Z,25.40
2018-07-02T19:36:18.027Z,25.30
2018-07-02T19:38:46.709Z,25.30
2018-07-02T19:41:15.532Z,25.30
2018-07-02T19:43:44.115Z,25.30
2018-07-02T19:46:12.755Z,25.30
2018-07-02T19:48:41.306Z,25.30
2018-07-02T19:51:09.987Z,25.30
2018-07-02T19:53:38.609Z,25.30
2018-07-02T19:56:07.183Z,25.30
2018-07-02T19:58:35.819Z,25.30
2018-07-02T20:01:04.761Z,25.20
2018-07-02T20:03:33.327Z,25.20
2018-07-02T20:06:01.914Z,25.20
2018-07-02T20:08:30.608Z,25.20
2018-07-02T20:10:59.208Z,25.20
2018-07-02T20:13:27.844Z,25.10
2018-07-02T20:15:56.468Z,25.10
2018-07-02T20:18:25.143Z,24.90
2018-07-02T20:20:53.774Z,24.70
2018-07-02T20:23:22.340Z,24.70
2018-07-02T20:25:50.966Z,24.70
2018-07-02T20:28:19.539Z,24.60
2018-07-02T20:30:48.315Z,24.60
2018-07-02T20:33:16.912Z,24.60
2018-07-02T20:35:45.501Z,24.60
2018-07-02T20:38:14.108Z,24.50
2018-07-02T20:40:42.827Z,24.40
2018-07-02T20:43:11.399Z,24.30
2018-07-02T20:45:40.247Z,24.30
2018-07-02T20:48:08.786Z,24.30
2018-07-02T20:50:37.474Z,24.30
2018-07-02T20:53:06.101Z,24.30
2018-07-02T20:55:34.721Z,24.30
2018-07-02T20:58:03.270Z,24.30
2018-07-02T21:00:32.403Z,24.30
2018-07-02T21:03:02.540Z,24.30
2018-07-02T21:05:31.732Z,24.30
2018-07-02T21:08:00.294Z,24.30
2018-07-02T21:10:29.202Z,24.30
2018-07-02T21:12:57.748Z,24.40
2018-07-02T21:15:26.394Z,24.40
2018-07-02T21:17:54.972Z,24.40
2018-07-02T21:20:23.919Z,24.40
2018-07-02T21:22:52.461Z,24.40
2018-07-02T21:25:21.010Z,24.20
2018-07-02T21:27:49.596Z,24.20
2018-07-02T21:30:18.262Z,24.20
2018-07-02T21:32:46.883Z,24.20
2018-07-02T21:35:15.426Z,24.10
2018-07-02T21:37:43.985Z,24.00
2018-07-02T21:40:12.764Z,23.90
2018-07-02T21:42:41.279Z,23.80
2018-07-02T21:45:09.895Z,23.80
2018-07-02T21:47:38.528Z,23.80
2018-07-02T21:50:07.106Z,23.80
2018-07-02T21:52:35.716Z,23.80
2018-07-02T21:55:04.375Z,23.80
2018-07-02T21:57:33.028Z,23.80
2018-07-02T22:00:01.657Z,23.80
2018-07-02T22:02:30.356Z,23.80
2018-07-02T22:04:58.941Z,23.80
2018-07-02T22:07:27.519Z,23.60
2018-07-02T22:09:56.302Z,23.50
2018-07-02T22:12:24.898Z,23.50
2018-07-02T22:14:53.510Z,23.50
2018-07-02T22:17:22.018Z,23.40
2018-07-02T22:19:50.718Z,23.40
2018-07-02T22:22:19.308Z,23.20
2018-07-02T22:24:47.878Z,23.20
2018-07-02T22:27:16.486Z,23.20
2018-07-02T22:29:45.181Z,23.10
2018-07-02T22:32:13.718Z,23.10
2018-07-02T22:34:42.321Z,23.10
2018-07-02T22:37:10.871Z,23.20
2018-07-02T22:39:39.443Z,23.20
2018-07-02T22:42:08.053Z,23.20
2018-07-02T22:44:36.652Z,23.10
2018-07-02T22:47:05.295Z,23.10
2018-07-02T22:49:33.958Z,23.00
2018-07-02T22:52:02.541Z,22.90
2018-07-02T22:54:31.182Z,22.80
2018-07-02T22:56:59.701Z,22.70
2018-07-02T22:59:28.505Z,22.70
2018-07-02T23:01:57.045Z,22.80
2018-07-02T23:04:25.604Z,22.70
2018-07-02T23:06:54.289Z,22.60
2018-07-02T23:09:23.021Z,22.50
2018-07-02T23:11:51.686Z,22.40
2018-07-02T23:14:20.214Z,22.20
2018-07-02T23:16:48.769Z,22.10
2018-07-02T23:19:17.313Z,22.00
2018-07-02T23:21:45.924Z,21.90
2018-07-02T23:24:14.503Z,21.80
2018-07-02T23:26:43.090Z,21.80
2018-07-02T23:29:11.689Z,21.80
2018-07-02T23:31:40.247Z,21.90
2018-07-02T23:34:08.782Z,21.90
2018-07-02T23:36:37.407Z,21.90
2018-07-02T23:39:08.777Z,21.80
2018-07-02T23:41:37.354Z,21.70
2018-07-02T23:44:05.985Z,21.60
2018-07-02T23:46:34.623Z,21.50
2018-07-02T23:49:03.299Z,21.50
2018-07-02T23:51:32.225Z,21.40
2018-07-02T23:54:01.027Z,21.30
2018-07-02T23:56:29.589Z,21.30
2018-07-02T23:58:58.164Z,21.20
